createdAt,value
2022-07-25T00:00:45.670Z,630.72
2022-07-25T00:03:19.016Z,663.03
2022-07-25T00:05:46.782Z,646.25
2022-07-25T00:08:14.166Z,637.80
2022-07-25T00:10:42.033Z,664.38
2022-07-25T00:13:09.389Z,646.25
2022-07-25T00:15:37.932Z,678.00
2022-07-25T00:18:05.627Z,671.05
2022-07-25T00:20:33.318Z,661.17
2022-07-25T00:23:00.604Z,656.28
2022-07-25T00:25:30.170Z,655.85
2022-07-25T00:28:00.197Z,660.08
2022-07-25T00:30:27.762Z,679.30
2022-07-25T00:32:55.270Z,707.25
2022-07-25T00:35:22.960Z,680.70
2022-07-25T00:37:51.028Z,696.53
2022-07-25T00:40:18.267Z,712.90
2022-07-25T00:42:45.520Z,743.38
2022-07-25T00:45:12.800Z,734.03
2022-07-25T00:47:42.635Z,760.67
2022-07-25T00:50:12.331Z,772.33
2022-07-25T00:52:40.616Z,772.88
2022-07-25T00:55:08.392Z,751.00
2022-07-25T00:57:36.122Z,745.55
2022-07-25T01:00:07.242Z,753.05
2022-07-25T01:02:34.792Z,723.08
2022-07-25T01:05:07.106Z,730.33
2022-07-25T01:07:39.708Z,724.72
2022-07-25T01:10:08.389Z,720.15
2022-07-25T01:12:50.397Z,721.13
2022-07-25T01:15:24.613Z,733.85
2022-07-25T01:17:54.379Z,739.33
2022-07-25T01:20:26.699Z,737.25
2022-07-25T01:22:55.022Z,736.90
2022-07-25T01:25:23.724Z,719.72
2022-07-25T01:27:55.776Z,717.90
2022-07-25T01:30:24.620Z,721.10
2022-07-25T01:32:54.953Z,693.53
2022-07-25T01:35:24.912Z,667.78
2022-07-25T01:37:55.012Z,690.63
2022-07-25T01:40:24.894Z,698.22
2022-07-25T01:42:52.200Z,728.03
2022-07-25T01:45:19.505Z,732.88
2022-07-25T01:47:48.945Z,724.38
2022-07-25T01:50:19.163Z,751.40
2022-07-25T01:52:46.493Z,765.83
2022-07-25T01:55:18.039Z,770.72
2022-07-25T01:57:50.032Z,776.17
2022-07-25T02:00:18.056Z,761.42
2022-07-25T02:02:48.660Z,787.47
2022-07-25T02:05:16.300Z,772.03
2022-07-25T02:07:43.549Z,790.95
2022-07-25T02:10:13.474Z,785.95
2022-07-25T02:12:44.138Z,786.20
2022-07-25T02:15:13.981Z,778.53
2022-07-25T02:17:47.057Z,763.55
2022-07-25T02:20:14.333Z,798.60
2022-07-25T02:22:41.591Z,809.22
2022-07-25T02:25:09.126Z,783.85
2022-07-25T02:27:36.657Z,742.65
2022-07-25T02:30:05.273Z,728.78
2022-07-25T02:32:35.213Z,746.58
2022-07-25T02:35:02.484Z,780.53
2022-07-25T02:37:29.725Z,752.00
2022-07-25T02:39:57.758Z,705.55
2022-07-25T02:42:25.149Z,759.05
2022-07-25T02:44:55.401Z,782.50
2022-07-25T02:47:22.725Z,766.13
2022-07-25T02:49:52.603Z,781.08
2022-07-25T02:52:20.203Z,751.85
2022-07-25T02:54:47.709Z,758.38
2022-07-25T02:57:17.194Z,746.60
2022-07-25T02:59:44.440Z,776.17
2022-07-25T03:02:14.596Z,780.55
2022-07-25T03:04:44.080Z,827.80
2022-07-25T03:07:16.622Z,757.55
2022-07-25T03:09:44.319Z,773.93
2022-07-25T03:12:14.887Z,772.10
2022-07-25T03:14:42.223Z,759.08
2022-07-25T03:17:12.770Z,814.38
2022-07-25T03:19:40.770Z,768.22
2022-07-25T03:22:08.768Z,798.47
2022-07-25T03:24:36.332Z,770.03
2022-07-25T03:27:06.161Z,778.53
2022-07-25T03:29:33.763Z,755.05
2022-07-25T03:32:01.242Z,752.75
2022-07-25T03:34:28.815Z,771.72
2022-07-25T03:36:58.593Z,741.05
2022-07-25T03:39:26.444Z,732.75
2022-07-25T03:41:55.862Z,706.53
2022-07-25T03:44:26.006Z,738.25
2022-07-25T03:46:55.783Z,712.83
2022-07-25T03:49:23.109Z,695.20
2022-07-25T03:51:50.365Z,703.25
2022-07-25T03:54:17.665Z,684.90
2022-07-25T03:56:48.858Z,694.58
2022-07-25T03:59:18.998Z,701.30
2022-07-25T04:01:47.956Z,667.92
2022-07-25T04:04:15.753Z,652.75
2022-07-25T04:06:45.736Z,623.05
2022-07-25T04:09:15.880Z,640.25
2022-07-25T04:11:43.698Z,649.70
2022-07-25T04:14:11.021Z,651.60
2022-07-25T04:16:38.550Z,667.17
2022-07-25T04:19:07.683Z,664.10
2022-07-25T04:21:36.260Z,698.15
2022-07-25T04:24:04.057Z,645.55
2022-07-25T04:26:34.132Z,645.40
2022-07-25T04:29:03.816Z,662.42
2022-07-25T04:31:36.432Z,653.55
2022-07-25T04:34:04.964Z,673.42
2022-07-25T04:36:34.936Z,669.70
2022-07-25T04:39:02.740Z,659.45
2022-07-25T04:41:31.051Z,645.70
2022-07-25T04:43:58.910Z,653.17
2022-07-25T04:46:26.433Z,645.05
2022-07-25T04:48:53.775Z,648.50
2022-07-25T04:51:23.487Z,657.10
2022-07-25T04:53:50.955Z,658.72
2022-07-25T04:56:20.706Z,679.03
2022-07-25T04:58:48.620Z,687.63
2022-07-25T05:01:16.125Z,743.10
2022-07-25T05:03:49.769Z,798.22
2022-07-25T05:06:21.556Z,730.75
2022-07-25T05:08:48.888Z,839.03
2022-07-25T05:11:16.747Z,889.75
2022-07-25T05:13:44.743Z,906.75
2022-07-25T05:16:12.531Z,941.35
2022-07-25T05:18:39.843Z,927.78
2022-07-25T05:21:11.144Z,941.50
2022-07-25T05:23:39.092Z,983.92
2022-07-25T05:26:06.451Z,984.47
2022-07-25T05:28:34.482Z,966.10
2022-07-25T05:31:02.433Z,971.95
2022-07-25T05:33:33.703Z,960.47
2022-07-25T05:36:02.754Z,949.88
2022-07-25T05:38:30.392Z,933.83
2022-07-25T05:41:00.435Z,885.17
2022-07-25T05:43:30.260Z,861.42
2022-07-25T05:46:02.702Z,845.17
2022-07-25T05:48:32.555Z,860.63
2022-07-25T05:51:03.317Z,880.95
2022-07-25T05:53:30.597Z,882.47
2022-07-25T05:55:58.124Z,853.28
2022-07-25T05:58:29.631Z,861.75
2022-07-25T06:01:01.159Z,860.95
2022-07-25T06:03:31.395Z,877.40
2022-07-25T06:05:58.735Z,879.08
2022-07-25T06:08:30.964Z,891.03
2022-07-25T06:11:03.917Z,800.90
2022-07-25T06:16:05.615Z,900.85
2022-07-25T06:18:32.953Z,892.95
2022-07-25T06:21:00.506Z,831.33
2022-07-25T06:23:28.302Z,882.10
2022-07-25T06:25:55.616Z,829.78
2022-07-25T06:28:25.404Z,878.05
2022-07-25T06:30:52.780Z,805.00
2022-07-25T06:33:20.330Z,808.67
2022-07-25T06:35:47.603Z,761.47
2022-07-25T06:38:15.516Z,768.22
2022-07-25T06:40:43.161Z,727.45
2022-07-25T06:43:11.228Z,731.97
2022-07-25T06:45:38.545Z,731.45
2022-07-25T06:48:06.919Z,704.15
2022-07-25T06:50:39.347Z,706.30
2022-07-25T06:53:06.662Z,675.83
2022-07-25T06:55:34.215Z,706.75
2022-07-25T06:58:01.621Z,707.08
2022-07-25T07:00:32.144Z,730.65
2022-07-25T07:03:02.505Z,682.50
2022-07-25T07:05:33.585Z,648.83
2022-07-25T07:08:01.353Z,671.20
2022-07-25T07:10:29.566Z,662.70
2022-07-25T07:13:08.114Z,669.42
2022-07-25T07:15:37.780Z,669.88
2022-07-25T07:18:07.656Z,665.45
2022-07-25T07:20:35.154Z,673.50
2022-07-25T07:23:02.898Z,696.03
2022-07-25T07:25:30.831Z,701.70
2022-07-25T07:27:59.144Z,713.22
2022-07-25T07:30:52.230Z,726.53
2022-07-25T07:33:17.603Z,743.15
2022-07-25T07:35:45.501Z,801.47
2022-07-25T07:38:18.364Z,698.25
2022-07-25T07:40:46.188Z,779.47
2022-07-25T07:43:14.116Z,757.30
2022-07-25T07:45:44.163Z,749.72
2022-07-25T07:48:13.371Z,837.45
2022-07-25T07:50:41.157Z,796.63
2022-07-25T07:53:11.664Z,794.75
2022-07-25T07:56:05.445Z,804.55
2022-07-25T07:58:32.678Z,768.00
2022-07-25T08:01:02.238Z,799.25
2022-07-25T08:03:32.409Z,851.08
2022-07-25T08:06:00.967Z,831.03
2022-07-25T08:08:31.320Z,823.22
2022-07-25T08:10:59.866Z,826.25
2022-07-25T08:13:33.203Z,762.13
2022-07-25T08:16:03.796Z,762.65
2022-07-25T08:18:34.923Z,767.28
2022-07-25T08:21:06.005Z,826.22
2022-07-25T08:23:35.460Z,890.13
2022-07-25T08:26:04.043Z,852.83
2022-07-25T08:28:32.528Z,865.67
2022-07-25T08:31:00.451Z,792.95
2022-07-25T08:33:30.928Z,744.50
2022-07-25T08:36:01.142Z,737.38
2022-07-25T08:38:29.531Z,723.08
2022-07-25T08:40:58.054Z,712.65
2022-07-25T08:43:25.588Z,710.13
2022-07-25T08:45:56.054Z,706.53
2022-07-25T08:48:54.333Z,699.80
2022-07-25T08:51:25.052Z,701.10
2022-07-25T08:53:55.150Z,681.03
2022-07-25T08:56:22.447Z,677.15
2022-07-25T08:58:50.946Z,694.83
2022-07-25T09:01:18.361Z,686.28
2022-07-25T09:03:48.601Z,678.38
2022-07-25T09:06:18.485Z,688.92
2022-07-25T09:09:04.695Z,678.72
2022-07-25T09:11:37.385Z,694.03
2022-07-25T09:14:08.626Z,693.45
2022-07-25T09:16:43.236Z,691.30
2022-07-25T09:19:21.697Z,582.03
2022-07-25T09:22:07.124Z,639.85
2022-07-25T09:24:48.022Z,572.28
2022-07-25T09:27:18.219Z,591.83
2022-07-25T09:29:45.936Z,559.90
2022-07-25T09:32:22.066Z,572.42
2022-07-25T09:34:52.640Z,604.45
2022-07-25T09:37:26.670Z,602.10
2022-07-25T09:39:54.349Z,664.58
2022-07-25T09:42:26.391Z,634.95
2022-07-25T09:45:17.495Z,532.85
2022-07-25T09:47:56.484Z,509.58
2022-07-25T09:50:26.065Z,456.50
2022-07-25T09:52:56.584Z,443.02
2022-07-25T09:55:24.860Z,481.50
2022-07-25T09:57:55.450Z,527.58
2022-07-25T10:00:26.560Z,572.35
2022-07-25T10:03:15.490Z,527.88
2022-07-25T10:06:10.004Z,533.83
2022-07-25T10:08:39.073Z,520.22
2022-07-25T10:11:20.442Z,506.17
2022-07-25T10:13:48.386Z,507.65
2022-07-25T10:16:24.101Z,546.42
2022-07-25T10:18:57.239Z,565.53
2022-07-25T10:21:29.301Z,560.30
2022-07-25T10:24:13.338Z,521.42
2022-07-25T10:26:52.732Z,480.67
2022-07-25T10:29:19.997Z,511.42
2022-07-25T10:31:51.532Z,526.28
2022-07-25T10:34:33.154Z,523.80
2022-07-25T10:37:21.297Z,509.08
2022-07-25T10:39:50.847Z,501.80
2022-07-25T10:42:22.125Z,445.67
2022-07-25T10:44:57.409Z,474.38
2022-07-25T10:47:30.556Z,487.70
2022-07-25T10:50:16.976Z,423.33
2022-07-25T10:52:59.588Z,449.02
2022-07-25T10:55:29.317Z,463.77
2022-07-25T10:58:22.119Z,481.92
2022-07-25T11:00:51.278Z,482.02
2022-07-25T11:03:23.156Z,526.95
2022-07-25T11:05:54.748Z,521.97
2022-07-25T11:08:32.078Z,572.95
2022-07-25T11:11:04.614Z,546.03
2022-07-25T11:13:42.856Z,549.50
2022-07-25T11:16:11.338Z,517.38
2022-07-25T11:18:44.438Z,546.38
2022-07-25T11:21:12.346Z,573.00
2022-07-25T11:23:41.268Z,585.00
2022-07-25T11:26:13.774Z,621.55
2022-07-25T11:28:44.188Z,591.07
2022-07-25T11:31:13.424Z,607.10
2022-07-25T11:33:43.926Z,607.20
2022-07-25T11:36:12.707Z,651.83
2022-07-25T11:38:43.609Z,659.83
2022-07-25T11:41:11.339Z,659.78
2022-07-25T11:43:39.229Z,688.70
2022-07-25T11:46:08.383Z,722.53
2022-07-25T11:48:39.282Z,738.42
2022-07-25T11:51:19.093Z,767.22
2022-07-25T11:53:50.306Z,737.53
2022-07-25T11:56:41.354Z,709.83
2022-07-25T11:59:12.837Z,709.72
2022-07-25T12:01:45.082Z,735.55
2022-07-25T12:04:19.972Z,769.15
2022-07-25T12:06:49.000Z,781.05
2022-07-25T12:09:19.613Z,782.40
2022-07-25T12:11:48.886Z,791.60
2022-07-25T12:14:18.839Z,809.40
2022-07-25T12:16:48.747Z,800.38
2022-07-25T12:19:22.078Z,837.60
2022-07-25T12:21:49.339Z,844.80
2022-07-25T12:24:16.574Z,834.83
2022-07-25T12:26:47.043Z,804.22
2022-07-25T12:29:14.749Z,803.33
2022-07-25T12:31:44.217Z,793.97
2022-07-25T12:34:11.490Z,750.42
2022-07-25T12:36:44.116Z,726.47
2022-07-25T12:39:14.373Z,676.92
2022-07-25T12:41:43.770Z,664.70
2022-07-25T12:44:11.653Z,657.50
2022-07-25T12:46:47.231Z,644.20
2022-07-25T12:49:18.949Z,596.72
2022-07-25T12:51:46.702Z,573.00
2022-07-25T12:54:21.649Z,550.70
2022-07-25T12:56:52.670Z,561.55
2022-07-25T12:59:20.519Z,552.90
2022-07-25T13:01:48.664Z,569.80
2022-07-25T13:04:16.462Z,553.47
2022-07-25T13:06:46.899Z,566.08
2022-07-25T13:09:14.671Z,590.33
2022-07-25T13:11:42.443Z,614.17
2022-07-25T13:14:13.511Z,621.47
2022-07-25T13:16:41.026Z,618.42
2022-07-25T13:19:14.131Z,644.25
2022-07-25T13:21:41.670Z,613.30
2022-07-25T13:24:09.942Z,577.47
2022-07-25T13:26:39.304Z,575.38
2022-07-25T13:29:09.479Z,573.78
2022-07-25T13:31:41.500Z,498.98
2022-07-25T13:34:10.793Z,464.77
2022-07-25T13:36:40.703Z,451.10
2022-07-25T13:39:10.862Z,404.52
2022-07-25T13:41:38.325Z,415.88
2022-07-25T13:44:07.301Z,417.75
2022-07-25T13:46:37.761Z,417.13
2022-07-25T13:49:05.347Z,421.48
2022-07-25T13:51:33.179Z,455.42
2022-07-25T13:54:01.265Z,487.77
2022-07-25T13:56:28.662Z,489.05
2022-07-25T13:58:56.059Z,478.50
2022-07-25T14:01:27.431Z,461.95
2022-07-25T14:03:55.592Z,437.02
2022-07-25T14:06:23.590Z,436.17
2022-07-25T14:08:51.167Z,472.77
2022-07-25T14:11:18.485Z,470.52
2022-07-25T14:13:48.853Z,463.38
2022-07-25T14:16:19.097Z,433.00
2022-07-25T14:18:46.748Z,437.23
2022-07-25T14:21:14.321Z,404.88
2022-07-25T14:23:44.580Z,392.60
2022-07-25T14:26:16.037Z,377.90
2022-07-25T14:28:44.308Z,386.00
2022-07-25T14:31:12.518Z,355.42
2022-07-25T14:33:40.635Z,352.92
2022-07-25T14:36:10.320Z,336.10
2022-07-25T14:38:40.021Z,345.85
2022-07-25T14:41:12.585Z,334.92
2022-07-25T14:43:41.499Z,339.75
2022-07-25T14:46:11.465Z,356.08
2022-07-25T14:48:39.677Z,334.30
2022-07-25T14:51:07.669Z,325.52
2022-07-25T14:53:36.057Z,343.45
2022-07-25T14:56:07.952Z,335.42
2022-07-25T14:58:36.214Z,337.48
2022-07-25T15:01:04.090Z,350.10
2022-07-25T15:03:32.321Z,348.45
2022-07-25T15:06:00.216Z,323.77
2022-07-25T15:08:29.147Z,327.83
2022-07-25T15:10:56.714Z,308.83
2022-07-25T15:13:32.422Z,315.20
2022-07-25T15:16:05.069Z,316.30
2022-07-25T15:18:46.961Z,325.03
2022-07-25T15:21:22.360Z,321.33
2022-07-25T15:23:54.038Z,303.73
2022-07-25T15:26:21.987Z,326.52
2022-07-25T15:28:49.711Z,323.20
2022-07-25T15:31:17.370Z,317.13
2022-07-25T15:33:44.788Z,304.02
2022-07-25T15:36:12.833Z,315.00
2022-07-25T15:38:40.217Z,322.83
2022-07-25T15:41:10.814Z,319.77
2022-07-25T15:43:39.236Z,338.02
2022-07-25T15:46:10.653Z,319.83
2022-07-25T15:48:38.631Z,316.25
2022-07-25T15:51:06.741Z,307.20
2022-07-25T15:53:34.087Z,324.33
2022-07-25T15:56:04.616Z,314.27
2022-07-25T15:58:32.015Z,331.80
2022-07-25T16:01:01.859Z,320.33
2022-07-25T16:03:29.383Z,315.52
2022-07-25T16:05:57.215Z,308.15
2022-07-25T16:08:25.174Z,312.63
2022-07-25T16:10:52.865Z,309.73
2022-07-25T16:13:20.154Z,335.90
2022-07-25T16:15:47.985Z,329.17
2022-07-25T16:18:18.022Z,326.02
2022-07-25T16:20:45.740Z,319.83
2022-07-25T16:23:13.878Z,326.63
2022-07-25T16:25:41.310Z,330.15
2022-07-25T16:28:08.771Z,320.65
2022-07-25T16:30:36.572Z,318.50
2022-07-25T16:33:04.290Z,320.02
2022-07-25T16:35:32.633Z,313.95
2022-07-25T16:38:01.326Z,333.90
2022-07-25T16:40:31.505Z,337.30
2022-07-25T16:42:59.954Z,336.67
2022-07-25T16:45:28.316Z,333.92
2022-07-25T16:47:58.209Z,332.73
2022-07-25T16:50:28.141Z,343.30
2022-07-25T16:52:55.516Z,335.08
2022-07-25T16:55:25.190Z,332.67
2022-07-25T16:57:57.148Z,350.25
2022-07-25T17:00:25.084Z,339.17
2022-07-25T17:02:52.323Z,325.33
2022-07-25T17:05:19.824Z,344.85
2022-07-25T17:07:56.990Z,327.98
2022-07-25T17:10:26.626Z,327.55
2022-07-25T17:12:54.697Z,339.05
2022-07-25T17:15:22.610Z,366.60
2022-07-25T17:17:49.980Z,333.02
2022-07-25T17:20:20.201Z,348.95
2022-07-25T17:22:50.501Z,328.85
2022-07-25T17:25:18.343Z,336.70
2022-07-25T17:27:46.105Z,330.00
2022-07-25T17:30:13.482Z,341.65
2022-07-25T17:32:41.270Z,324.48
2022-07-25T17:35:09.485Z,344.65
2022-07-25T17:37:36.879Z,338.00
2022-07-25T17:40:05.124Z,347.05
2022-07-25T17:42:33.064Z,344.52
2022-07-25T17:45:00.441Z,355.80
2022-07-25T17:47:27.650Z,359.60
2022-07-25T17:49:57.429Z,353.38
2022-07-25T17:52:24.813Z,360.35
2022-07-25T17:54:52.164Z,359.52
2022-07-25T17:57:19.487Z,374.67
2022-07-25T17:59:47.083Z,377.85
2022-07-25T18:02:14.652Z,374.58
2022-07-25T18:04:42.035Z,371.38
2022-07-25T18:07:11.851Z,378.45
2022-07-25T18:09:41.717Z,387.25
2022-07-25T18:12:09.041Z,388.95
2022-07-25T18:14:39.094Z,380.13
2022-07-25T18:17:06.559Z,408.95
2022-07-25T18:19:37.015Z,407.88
2022-07-25T18:22:09.628Z,408.70
2022-07-25T18:24:39.406Z,402.93
2022-07-25T18:27:06.997Z,434.15
2022-07-25T18:29:38.531Z,427.52
2022-07-25T18:32:06.615Z,434.33
2022-07-25T18:34:39.818Z,434.80
2022-07-25T18:37:09.926Z,422.20
2022-07-25T18:39:37.279Z,407.40
2022-07-25T18:42:04.744Z,437.23
2022-07-25T18:44:33.337Z,441.00
2022-07-25T18:47:02.549Z,432.10
2022-07-25T18:49:29.880Z,426.75
2022-07-25T18:51:59.312Z,434.13
2022-07-25T18:54:29.313Z,433.27
2022-07-25T18:56:59.432Z,441.92
2022-07-25T18:59:26.833Z,434.98
2022-07-25T19:01:55.205Z,465.45
2022-07-25T19:04:22.757Z,447.67
2022-07-25T19:06:50.084Z,449.25
2022-07-25T19:09:19.056Z,451.77
2022-07-25T19:11:47.920Z,462.17
2022-07-25T19:14:16.030Z,501.05
2022-07-25T19:16:46.244Z,487.13
2022-07-25T19:19:16.363Z,484.38
2022-07-25T19:21:46.552Z,445.80
2022-07-25T19:24:13.923Z,484.60
2022-07-25T19:26:42.696Z,471.20
2022-07-25T19:29:12.870Z,457.98
2022-07-25T19:31:40.734Z,431.58
2022-07-25T19:34:11.263Z,458.15
2022-07-25T19:36:43.807Z,446.42
2022-07-25T19:39:12.456Z,465.42
2022-07-25T19:41:46.300Z,468.00
2022-07-25T19:44:15.073Z,482.05
2022-07-25T19:46:42.780Z,493.17
2022-07-25T19:49:10.729Z,493.50
2022-07-25T19:51:38.938Z,510.52
2022-07-25T19:54:08.922Z,513.92
2022-07-25T19:56:37.055Z,576.17
2022-07-25T19:59:04.474Z,539.60
2022-07-25T20:01:35.539Z,554.38
2022-07-25T20:04:05.357Z,549.22
2022-07-25T20:06:35.765Z,514.72
2022-07-25T20:09:04.471Z,547.58
2022-07-25T20:11:32.218Z,589.42
2022-07-25T20:14:07.169Z,579.53
2022-07-25T20:16:38.581Z,627.05
2022-07-25T20:19:08.558Z,620.45
2022-07-25T20:21:44.286Z,628.60
2022-07-25T20:24:21.256Z,614.25
2022-07-25T20:26:52.750Z,629.20
2022-07-25T20:29:22.954Z,622.03
2022-07-25T20:31:53.990Z,614.05
2022-07-25T20:34:24.392Z,644.40
2022-07-25T20:36:52.355Z,642.35
2022-07-25T20:39:19.647Z,623.60
2022-07-25T20:41:50.240Z,638.50
2022-07-25T20:44:22.660Z,657.38
2022-07-25T20:46:51.549Z,629.22
2022-07-25T20:49:19.115Z,649.35
2022-07-25T20:51:48.755Z,690.88
2022-07-25T20:54:20.244Z,695.22
2022-07-25T20:56:47.542Z,727.75
2022-07-25T20:59:14.878Z,729.97
2022-07-25T21:01:46.814Z,759.22
2022-07-25T21:04:14.644Z,752.65
2022-07-25T21:06:45.450Z,765.45
2022-07-25T21:09:13.398Z,777.40
2022-07-25T21:11:40.707Z,797.97
2022-07-25T21:14:08.935Z,808.03
2022-07-25T21:16:41.090Z,787.92
2022-07-25T21:19:11.362Z,803.38
2022-07-25T21:21:38.816Z,790.60
2022-07-25T21:24:06.612Z,797.13
2022-07-25T21:26:34.443Z,801.90
2022-07-25T21:29:01.773Z,817.10
2022-07-25T21:31:32.533Z,809.85
2022-07-25T21:34:02.020Z,810.05
2022-07-25T21:36:34.991Z,801.35
2022-07-25T21:39:02.252Z,793.38
2022-07-25T21:41:30.533Z,783.85
2022-07-25T21:44:00.195Z,809.90
2022-07-25T21:46:28.089Z,777.10
2022-07-25T21:49:14.795Z,795.90
2022-07-25T21:51:42.353Z,796.72
2022-07-25T21:54:11.728Z,789.88
2022-07-25T21:56:41.263Z,784.03
2022-07-25T21:59:12.109Z,783.80
2022-07-25T22:01:41.843Z,781.22
2022-07-25T22:04:09.887Z,760.45
2022-07-25T22:06:37.390Z,785.30
2022-07-25T22:09:07.531Z,761.17
2022-07-25T22:11:42.402Z,736.08
2022-07-25T22:14:15.088Z,728.28
2022-07-25T22:16:45.312Z,706.10
2022-07-25T22:19:13.347Z,702.80
2022-07-25T22:21:41.439Z,733.83
2022-07-25T22:24:14.839Z,730.00
2022-07-25T22:29:12.048Z,758.63
2022-07-25T22:31:40.341Z,728.33
2022-07-25T22:34:13.031Z,712.28
2022-07-25T22:36:40.314Z,748.43
2022-07-25T22:39:11.690Z,703.83
2022-07-25T22:41:39.382Z,704.95
2022-07-25T22:44:09.290Z,703.50
2022-07-25T22:46:37.222Z,695.33
2022-07-25T22:49:07.665Z,698.63
2022-07-25T22:51:35.314Z,698.55
2022-07-25T22:54:04.471Z,687.53
2022-07-25T22:56:34.100Z,691.78
2022-07-25T22:59:01.371Z,693.85
2022-07-25T23:01:31.332Z,695.92
2022-07-25T23:03:58.903Z,730.75
2022-07-25T23:06:26.649Z,734.15
2022-07-25T23:08:54.745Z,757.17
2022-07-25T23:11:22.013Z,743.85
2022-07-25T23:13:49.779Z,769.17
2022-07-25T23:16:17.659Z,752.17
2022-07-25T23:18:45.134Z,718.75
2022-07-25T23:21:12.393Z,748.00
2022-07-25T23:23:42.277Z,742.10
2022-07-25T23:26:10.096Z,678.88
2022-07-25T23:28:38.022Z,707.00
2022-07-25T23:31:07.919Z,704.67
2022-07-25T23:33:35.953Z,723.55
2022-07-25T23:36:03.504Z,698.97
2022-07-25T23:38:31.313Z,697.90
2022-07-25T23:40:58.590Z,716.13
2022-07-25T23:43:35.649Z,722.53
2022-07-25T23:46:14.198Z,702.50
2022-07-25T23:48:44.790Z,712.95
2022-07-25T23:51:12.126Z,722.17
2022-07-25T23:53:39.863Z,790.95
2022-07-25T23:56:07.289Z,777.25
2022-07-25T23:58:36.743Z,791.22
